Time;durP1;ratioP1;P1;durP2;ratioP2;P2;SDS_P1;SDS_P2;PMS_P1;PMS_P2;Temp;Humidity;BMP_temperature;BMP_pressure;BME280_temperature;BME280_humidity;BME280_pressure;Samples;Min_cycle;Max_cycle;Signal;HPM_P1;HPM_P2
2023/04/06 00:00:09;;;;;;;5.40;2.80;;;;;;;18.57;47.53;97657.13;4992543;28;20200;-94
2023/04/06 00:02:36;;;;;;;3.47;2.77;;;;;;;18.39;47.45;97633.44;4964280;28;20188;-94
2023/04/06 00:05:03;;;;;;;2.87;2.40;;;;;;;18.27;47.68;97599.81;4954814;28;20259;-95
2023/04/06 00:07:29;;;;;;;3.30;2.70;;;;;;;18.86;47.52;97697.44;4960693;28;20221;-95
2023/04/06 00:09:56;;;;;;;3.80;2.33;;;;;;;18.76;47.70;97690.19;4947364;28;20250;-95
2023/04/06 00:12:23;;;;;;;2.73;2.27;;;;;;;18.83;47.56;97689.66;4957427;28;20199;-94
2023/04/06 00:14:50;;;;;;;3.50;2.67;;;;;;;18.45;47.33;97632.03;4966540;28;20191;-95
2023/04/06 00:17:17;;;;;;;3.37;2.63;;;;;;;18.54;47.55;97632.44;4969724;28;20192;-94
2023/04/06 00:19:44;;;;;;;3.07;2.73;;;;;;;18.33;47.63;97606.03;4940910;28;20180;-95
2023/04/06 00:22:11;;;;;;;3.00;2.33;;;;;;;18.53;47.41;97635.75;4964675;28;20199;-96
2023/04/06 00:24:37;;;;;;;3.03;2.50;;;;;;;18.54;47.50;97639.19;4940939;28;20592;-95
2023/04/06 00:27:04;;;;;;;2.33;2.03;;;;;;;18.25;47.79;97597.19;4948137;28;20188;-94
2023/04/06 00:29:31;;;;;;;3.10;2.40;;;;;;;18.27;47.35;97596.44;4971241;28;20209;-95
2023/04/06 00:31:57;;;;;;;3.40;2.33;;;;;;;18.86;47.27;97700.81;4967480;28;20195;-95
2023/04/06 00:34:24;;;;;;;2.80;2.47;;;;;;;18.86;47.47;97697.44;4956507;28;20191;-94
2023/04/06 00:36:51;;;;;;;2.73;2.47;;;;;;;18.50;47.52;97627.16;4951619;28;20185;-95
2023/04/06 00:39:17;;;;;;;2.77;2.37;;;;;;;18.86;47.43;97694.88;4978890;28;20235;-95
2023/04/06 00:41:50;;;;;;;2.73;2.50;;;;;;;18.42;47.39;97610.66;4954808;28;21106;-95
2023/04/06 00:44:16;;;;;;;2.57;2.27;;;;;;;18.31;47.55;97591.50;4961942;28;20196;-95
2023/04/06 00:46:43;;;;;;;3.07;2.77;;;;;;;18.27;47.62;97587.09;4955554;28;20193;-94
2023/04/06 00:49:10;;;;;;;2.60;2.40;;;;;;;18.87;47.34;97696.63;4941880;28;20269;-94
2023/04/06 00:51:37;;;;;;;2.30;2.00;;;;;;;18.44;47.30;97626.88;4938888;28;20224;-94
2023/04/06 00:54:04;;;;;;;3.80;2.37;;;;;;;18.55;47.40;97631.63;4957800;28;20247;-95
2023/04/06 00:56:30;;;;;;;2.53;2.33;;;;;;;18.87;47.36;97687.31;4956476;28;20195;-95
2023/04/06 00:58:57;;;;;;;2.57;2.37;;;;;;;18.07;47.51;97543.00;4970124;28;20183;-95
2023/04/06 01:01:24;;;;;;;3.27;2.60;;;;;;;18.81;47.32;97673.44;4970659;28;20232;-94
2023/04/06 01:03:51;;;;;;;2.60;2.40;;;;;;;19.02;47.09;97712.53;4959790;28;20208;-95
2023/04/06 01:06:18;;;;;;;2.50;2.30;;;;;;;18.47;47.12;97615.13;4965095;28;20179;-95
2023/04/06 01:08:44;;;;;;;2.57;2.37;;;;;;;18.44;47.53;97606.53;4946267;28;20219;-94
2023/04/06 01:11:11;;;;;;;4.57;2.63;;;;;;;19.19;47.27;97727.72;4981067;28;20246;-95
2023/04/06 01:13:37;;;;;;;4.63;2.63;;;;;;;18.09;47.33;97549.03;4957876;28;20188;-95
2023/04/06 01:16:05;;;;;;;3.60;2.67;;;;;;;18.79;47.21;97672.50;4972617;28;20215;-95
2023/04/06 01:18:32;;;;;;;2.80;2.50;;;;;;;18.40;47.32;97597.88;4963708;28;20194;-95
2023/04/06 02:25:17;;;;;;;2.40;2.17;;;;;;;14.31;47.29;96909.56;4938925;29;20209;-91
2023/04/06 02:27:46;;;;;;;2.77;2.57;;;;;;;17.16;47.55;97395.78;4923757;29;20267;-92
2023/04/06 02:30:13;;;;;;;2.90;2.30;;;;;;;14.76;47.40;96997.69;4922645;29;20213;-92
2023/04/06 02:32:41;;;;;;;2.70;2.50;;;;;;;14.64;47.37;96987.00;4923051;29;20228;-91
2023/04/06 02:35:08;;;;;;;2.43;2.23;;;;;;;15.95;47.32;97155.19;4907243;29;20283;-91
2023/04/06 02:37:35;;;;;;;2.90;2.60;;;;;;;14.68;47.56;96933.25;4920836;29;20221;-92
2023/04/06 04:28:29;;;;;;;3.80;2.37;;;;;;;17.59;47.39;97434.97;2465970;23;20235;-87
2023/04/06 04:30:55;;;;;;;3.30;2.60;;;;;;;17.93;47.38;97505.94;4944169;28;20204;-87
2023/04/06 04:33:23;;;;;;;6.10;2.50;;;;;;;19.35;47.25;97737.78;5028055;23;20297;-92
2023/04/06 04:35:56;;;;;;;4.80;2.40;;;;;;;18.27;47.08;97563.38;4911806;29;20186;-92
2023/04/06 04:38:23;;;;;;;3.20;2.50;;;;;;;17.58;47.18;97435.78;4892682;29;20187;-92
2023/04/06 04:40:58;;;;;;;3.13;2.30;;;;;;;17.53;46.90;97442.34;4905379;29;20209;-92
2023/04/06 04:43:58;;;;;;;2.20;2.00;;;;;;;18.04;47.10;97540.31;4928146;29;20161;-91
2023/04/06 04:46:41;;;;;;;2.93;2.20;;;;;;;17.27;46.74;97404.75;4942608;29;20181;-91
2023/04/06 04:49:08;;;;;;;3.77;2.67;;;;;;;17.98;46.62;97530.75;4942569;29;20185;-91
2023/04/06 04:51:36;;;;;;;5.80;2.50;;;;;;;18.13;46.25;97554.31;4910776;29;20258;-92
2023/04/06 04:54:03;;;;;;;5.50;3.13;;;;;;;18.05;46.10;97564.94;4929240;29;20181;-91
2023/04/06 04:56:29;;;;;;;7.73;3.30;;;;;;;19.20;49.52;97742.22;5042049;23;20889;-54
2023/04/06 04:58:56;;;;;;;3.20;2.73;;;;;;;18.74;46.24;97668.91;4926406;29;20217;-44
2023/04/06 05:01:23;;;;;;;5.77;3.33;;;;;;;19.19;46.49;97747.25;4929865;29;20208;-51
2023/04/06 05:03:49;;;;;;;5.83;2.80;;;;;;;19.21;46.61;97748.16;4923738;29;20244;-57
2023/04/06 05:06:16;;;;;;;9.33;2.90;;;;;;;19.23;46.55;97746.56;4927234;29;20640;-56
2023/04/06 05:08:43;;;;;;;8.60;2.93;;;;;;;19.25;46.51;97750.06;4911720;29;20284;-55
2023/04/06 05:11:09;;;;;;;8.50;2.83;;;;;;;19.27;46.61;97745.94;4950456;23;20644;-29
2023/04/06 05:13:36;;;;;;;5.63;2.93;;;;;;;19.29;46.70;97745.19;4937078;29;20251;-34
2023/04/06 05:16:03;;;;;;;5.77;3.23;;;;;;;19.31;46.57;97746.13;4953766;28;20243;-29
2023/04/06 05:18:29;;;;;;;4.47;3.13;;;;;;;19.27;46.47;97739.13;4956290;29;20210;-28
2023/04/06 05:20:56;;;;;;;5.60;3.00;;;;;;;19.34;46.59;97746.25;4955463;28;20227;-29
2023/04/06 05:23:23;;;;;;;7.83;3.50;;;;;;;19.35;45.62;97745.44;4949948;28;20196;-30
2023/04/06 05:25:49;;;;;;;8.87;4.93;;;;;;;19.36;42.69;97748.84;4954597;28;20208;-28
2023/04/06 05:28:16;;;;;;;16.40;5.53;;;;;;;19.25;40.12;97733.09;4938262;29;20636;-28
2023/04/06 05:30:44;;;;;;;10.87;5.40;;;;;;;19.33;38.07;97748.72;4938014;29;20224;-28
2023/04/06 05:33:11;;;;;;;15.10;5.97;;;;;;;19.31;36.58;97745.25;4943317;29;20421;-29
2023/04/06 05:35:37;;;;;;;11.73;6.23;;;;;;;19.30;35.86;97748.59;4951476;29;20204;-28
2023/04/06 05:38:07;;;;;;;9.70;5.73;;;;;;;19.30;36.58;97746.06;4955862;29;20777;-29
2023/04/06 05:40:34;;;;;;;12.97;5.73;;;;;;;19.30;37.62;97744.34;4948077;28;20698;-28
2023/04/06 05:43:00;;;;;;;11.13;5.77;;;;;;;19.30;38.81;97748.59;4941028;29;20320;-29
2023/04/06 05:45:27;;;;;;;9.97;5.13;;;;;;;19.27;39.59;97744.22;4949379;28;20787;-28
2023/04/06 05:47:54;;;;;;;11.07;5.40;;;;;;;19.31;40.04;97758.88;4953111;28;20212;-29
2023/04/06 05:50:20;;;;;;;9.10;5.50;;;;;;;19.32;40.95;97755.50;4950354;28;20611;-30
2023/04/06 05:52:47;;;;;;;7.60;4.97;;;;;;;19.33;41.18;97753.84;4953450;29;20256;-28
2023/04/06 05:55:13;;;;;;;11.90;5.10;;;;;;;19.33;41.58;97756.38;4946258;28;20570;-28
2023/04/06 05:57:40;;;;;;;6.60;4.57;;;;;;;19.34;41.79;97758.09;4954212;28;20248;-30
2023/04/06 06:00:10;;;;;;;9.10;4.77;;;;;;;19.24;42.04;97740.63;4945251;29;20259;-28
2023/04/06 06:02:37;;;;;;;12.27;5.33;;;;;;;19.35;41.17;97759.84;4932480;29;20259;-31
2023/04/06 06:05:04;;;;;;;8.57;5.23;;;;;;;19.35;41.21;97759.84;4947141;29;20197;-28
2023/04/06 06:07:30;;;;;;;6.00;4.20;;;;;;;19.35;42.18;97759.84;4942155;28;20241;-28
2023/04/06 06:09:58;;;;;;;9.57;5.00;;;;;;;19.35;41.38;97759.84;4949533;28;20240;-30
2023/04/06 06:12:24;;;;;;;15.57;5.60;;;;;;;19.35;40.96;97758.16;4949194;29;20268;-29
2023/04/06 06:14:51;;;;;;;10.37;4.93;;;;;;;19.37;41.23;97763.34;4947603;29;20204;-29
2023/04/06 06:17:17;;;;;;;16.53;5.57;;;;;;;19.32;39.61;97755.50;4951081;29;20251;-29
2023/04/06 06:19:44;;;;;;;27.93;7.13;;;;;;;19.36;36.12;97769.25;4946469;29;20228;-28
2023/04/06 06:22:11;;;;;;;13.03;6.10;;;;;;;19.33;35.37;97769.97;4945115;29;20281;-28
2023/04/06 06:24:37;;;;;;;12.47;6.70;;;;;;;19.31;34.24;97763.06;4944574;28;20201;-31
2023/04/06 06:27:04;;;;;;;13.43;6.47;;;;;;;19.28;34.57;97761.28;4949463;28;20212;-28
2023/04/06 06:29:31;;;;;;;16.27;6.10;;;;;;;19.28;35.28;97765.50;4952231;28;20204;-29
2023/04/06 06:31:57;;;;;;;15.30;6.30;;;;;;;19.18;36.76;97763.31;4955246;29;20232;-29
2023/04/06 06:34:25;;;;;;;10.40;5.73;;;;;;;19.26;37.25;97778.13;4951781;29;20298;-28
2023/04/06 06:36:54;;;;;;;10.20;6.13;;;;;;;18.74;37.60;97691.81;4945217;28;20233;-29
2023/04/06 06:39:20;;;;;;;9.07;5.37;;;;;;;19.23;38.31;97780.56;4944208;29;20225;-28
2023/04/06 06:41:47;;;;;;;10.20;5.33;;;;;;;19.17;38.37;97765.00;4951916;28;20222;-29
2023/04/06 06:44:14;;;;;;;8.40;5.50;;;;;;;19.26;38.79;97779.81;4943486;29;20246;-28
2023/04/06 06:46:40;;;;;;;12.13;5.70;;;;;;;19.27;39.07;97776.50;4944384;29;20751;-29
2023/04/06 06:49:07;;;;;;;11.03;5.50;;;;;;;19.27;39.19;97785.00;4949395;29;20236;-29
2023/04/06 06:51:34;;;;;;;8.83;5.40;;;;;;;19.27;39.55;97774.81;4944615;29;20225;-28
2023/04/06 06:54:00;;;;;;;10.90;5.97;;;;;;;19.31;40.21;97773.28;4953500;29;20279;-28
2023/04/06 06:56:27;;;;;;;10.97;5.50;;;;;;;19.28;40.34;97770.59;4946089;29;20233;-29
2023/04/06 06:58:54;;;;;;;9.00;5.47;;;;;;;19.35;40.30;97777.69;4953727;29;20208;-28
2023/04/06 07:01:21;;;;;;;8.87;5.37;;;;;;;19.34;40.59;97769.19;4955120;29;20224;-28
2023/04/06 07:03:48;;;;;;;11.17;5.60;;;;;;;19.38;40.57;97773.59;4943503;29;20686;-29
2023/04/06 07:06:14;;;;;;;9.47;4.90;;;;;;;19.40;40.67;97774.53;4955052;29;20671;-29
2023/04/06 07:08:41;;;;;;;9.83;5.13;;;;;;;19.42;41.03;97772.91;4951265;28;20283;-35
2023/04/06 07:11:07;;;;;;;12.30;5.30;;;;;;;19.43;41.19;97795.06;4954530;28;20315;-35
2023/04/06 07:13:34;;;;;;;11.93;5.37;;;;;;;19.46;41.23;97773.91;4948033;29;20708;-28
2023/04/06 07:16:01;;;;;;;14.23;5.73;;;;;;;19.47;41.43;97770.53;4953947;28;20196;-29
2023/04/06 07:18:27;;;;;;;10.50;5.10;;;;;;;19.49;41.50;97769.81;4949801;29;20285;-28
2023/04/06 07:20:54;;;;;;;7.67;4.87;;;;;;;19.49;41.57;97766.38;4951036;28;20311;-29
2023/04/06 07:23:20;;;;;;;10.03;5.20;;;;;;;19.53;41.83;97775.88;4949631;28;20197;-29
2023/04/06 07:25:47;;;;;;;9.60;4.83;;;;;;;19.54;41.80;97770.84;4947672;29;20692;-30
2023/04/06 07:28:14;;;;;;;9.07;4.80;;;;;;;19.57;41.78;97775.22;4946372;29;20200;-28
2023/04/06 07:30:40;;;;;;;8.60;4.90;;;;;;;19.58;42.20;97774.41;4934437;29;20413;-37
2023/04/06 07:33:07;;;;;;;9.43;4.93;;;;;;;19.57;42.17;97772.69;4948056;29;20311;-33
2023/04/06 07:35:34;;;;;;;7.33;4.47;;;;;;;19.60;42.30;97778.75;4941263;29;20631;-28
2023/04/06 07:38:01;;;;;;;7.77;4.77;;;;;;;19.62;42.18;97786.47;4951821;29;20208;-29
2023/04/06 07:40:28;;;;;;;9.77;4.97;;;;;;;19.64;42.26;97784.84;4949910;28;20220;-28
2023/04/06 07:42:54;;;;;;;9.07;4.73;;;;;;;19.62;42.21;97787.34;4937320;29;20205;-29
2023/04/06 07:45:23;;;;;;;8.17;4.80;;;;;;;19.65;42.40;97789.13;4948750;29;20663;-28
2023/04/06 07:47:50;;;;;;;10.70;5.17;;;;;;;19.59;42.52;97771.91;4928166;29;20206;-30
2023/04/06 07:50:16;;;;;;;6.97;4.20;;;;;;;19.68;42.34;97789.25;4949916;28;20596;-29
2023/04/06 07:52:43;;;;;;;8.33;4.67;;;;;;;19.68;42.71;97786.72;4952327;29;20269;-29
2023/04/06 07:55:10;;;;;;;7.90;4.67;;;;;;;19.69;42.66;97789.31;4948054;28;20587;-29
2023/04/06 07:57:36;;;;;;;10.23;4.70;;;;;;;19.69;42.79;97791.03;4951882;28;20243;-27
2023/04/06 08:00:04;;;;;;;10.97;5.10;;;;;;;19.69;42.72;97789.31;4943920;28;20741;-28
2023/04/06 08:02:33;;;;;;;13.67;4.73;;;;;;;19.63;43.07;97778.03;4949315;29;20243;-29
2023/04/06 08:05:00;;;;;;;7.30;4.77;;;;;;;19.66;42.93;97784.09;4919279;29;20601;-29
2023/04/06 08:07:27;;;;;;;7.77;4.53;;;;;;;19.68;43.11;97791.81;4939343;29;20287;-28
2023/04/06 08:09:53;;;;;;;7.20;4.60;;;;;;;19.67;43.05;97782.44;4943845;28;20236;-29
2023/04/06 08:12:20;;;;;;;7.23;4.47;;;;;;;19.66;43.34;97784.09;4944853;29;20256;-29
2023/04/06 08:14:47;;;;;;;10.20;4.40;;;;;;;19.61;43.35;97772.88;4951877;29;20200;-29
2023/04/06 08:17:14;;;;;;;8.30;4.47;;;;;;;19.64;43.29;97782.31;4954203;29;20200;-29
2023/04/06 08:19:43;;;;;;;10.13;4.77;;;;;;;19.62;43.43;97782.25;4951408;28;20203;-28
2023/04/06 08:22:10;;;;;;;9.13;4.20;;;;;;;19.64;43.51;97784.84;4953567;28;20196;-29
2023/04/06 08:24:37;;;;;;;8.07;4.30;;;;;;;19.62;43.43;97784.78;4942572;28;20247;-28
2023/04/06 08:27:04;;;;;;;9.20;4.90;;;;;;;19.61;43.61;97782.19;4952587;28;20208;-28
2023/04/06 08:29:30;;;;;;;7.83;4.67;;;;;;;19.62;43.69;97786.47;4951585;28;20196;-28
2023/04/06 08:31:57;;;;;;;7.37;4.70;;;;;;;19.60;43.66;97783.84;4946649;29;20208;-29
2023/04/06 08:34:24;;;;;;;6.53;4.40;;;;;;;19.52;43.57;97769.94;4947486;29;20709;-31
2023/04/06 08:36:50;;;;;;;10.20;4.30;;;;;;;19.59;43.68;97778.69;4952936;29;20267;-27
2023/04/06 08:39:23;;;;;;;8.87;4.57;;;;;;;19.61;43.78;97785.59;4946485;29;20196;-27
2023/04/06 08:41:51;;;;;;;8.30;4.57;;;;;;;19.60;43.95;97785.53;4945481;29;20201;-30
2023/04/06 08:44:18;;;;;;;6.23;3.83;;;;;;;19.60;43.93;97785.53;4949185;29;20201;-29
2023/04/06 08:46:44;;;;;;;7.00;4.77;;;;;;;19.61;43.95;97779.63;4936400;29;20233;-29
2023/04/06 08:49:11;;;;;;;8.23;4.23;;;;;;;19.58;44.11;97777.84;4945242;29;20674;-29
2023/04/06 08:51:38;;;;;;;8.70;3.87;;;;;;;19.61;44.14;97785.59;4933796;29;20360;-28
2023/04/06 08:54:05;;;;;;;5.90;4.30;;;;;;;19.62;44.13;97778.81;4944161;29;20220;-29
2023/04/06 08:56:31;;;;;;;7.47;4.37;;;;;;;19.54;44.01;97770.84;4944416;29;20255;-29
2023/04/06 08:58:58;;;;;;;9.43;4.10;;;;;;;19.54;44.08;97770.00;4912637;29;20328;-29
2023/04/06 09:01:26;;;;;;;5.07;3.87;;;;;;;19.61;44.17;97782.19;4931361;29;20221;-29
2023/04/06 09:03:57;;;;;;;7.07;4.00;;;;;;;19.47;44.21;97750.16;4923525;29;20303;-28
2023/04/06 09:06:26;;;;;;;8.93;4.23;;;;;;;19.11;44.15;97690.88;4941631;29;20200;-28
2023/04/06 09:08:53;;;;;;;5.80;3.70;;;;;;;19.62;44.25;97777.13;4933073;29;20294;-28
2023/04/06 09:11:19;;;;;;;5.67;3.53;;;;;;;19.62;44.26;97776.25;4949313;28;20236;-29
2023/04/06 09:13:47;;;;;;;9.53;4.00;;;;;;;19.62;44.35;97772.03;4945943;29;20694;-28
2023/04/06 09:16:14;;;;;;;7.90;3.90;;;;;;;19.62;44.09;97777.13;4942140;29;20209;-29
2023/04/06 09:18:41;;;;;;;5.37;3.87;;;;;;;19.49;44.36;97753.63;4941965;29;20197;-28
2023/04/06 09:21:07;;;;;;;7.30;3.77;;;;;;;19.62;44.31;97776.25;4947715;28;20248;-33
2023/04/06 09:23:34;;;;;;;6.93;3.87;;;;;;;19.54;44.24;97764.91;4941939;29;20201;-29
2023/04/06 09:26:14;;;;;;;5.67;3.43;;;;;;;19.57;44.43;97763.31;4943369;29;20268;-29
2023/04/06 09:29:00;;;;;;;5.37;3.80;;;;;;;19.59;44.33;97761.72;4943548;29;20640;-29
2023/04/06 09:31:29;;;;;;;7.37;3.77;;;;;;;19.61;44.39;97764.34;4935083;29;20291;-29
2023/04/06 09:33:56;;;;;;;5.13;3.70;;;;;;;19.60;44.56;97771.09;4952947;29;20571;-27
2023/04/06 09:36:31;;;;;;;5.87;3.73;;;;;;;19.61;44.63;97770.31;4953268;29;20201;-29
2023/04/06 09:39:00;;;;;;;7.43;3.67;;;;;;;19.50;44.62;97750.28;4942882;29;20235;-29
2023/04/06 09:41:36;;;;;;;5.17;3.63;;;;;;;19.61;44.47;97774.53;4952198;28;20240;-27
2023/04/06 09:44:09;;;;;;;5.97;3.50;;;;;;;19.57;44.55;97759.94;4943621;29;20211;-31
2023/04/06 09:46:44;;;;;;;5.93;4.10;;;;;;;19.59;44.68;97766.81;4946377;29;20208;-29
2023/04/06 09:49:27;;;;;;;5.57;3.70;;;;;;;19.51;44.55;97749.47;4941782;29;20207;-30
2023/04/06 09:51:58;;;;;;;7.33;4.17;;;;;;;19.47;44.72;97753.56;4927793;29;20204;-29
2023/04/06 09:54:30;;;;;;;6.43;3.87;;;;;;;19.25;44.72;97696.53;4936178;29;20776;-28
2023/04/06 09:57:05;;;;;;;5.47;4.07;;;;;;;19.55;44.71;97746.25;4935295;29;20671;-32
2023/04/06 09:59:38;;;;;;;5.10;3.83;;;;;;;19.58;44.70;97754.00;4920680;28;20200;-29
2023/04/06 10:02:05;;;;;;;6.90;3.83;;;;;;;19.50;44.70;97734.97;4949028;28;20200;-28
2023/04/06 10:04:41;;;;;;;6.63;3.50;;;;;;;19.58;44.79;97741.25;4938607;29;20717;-31
2023/04/06 10:07:07;;;;;;;5.43;3.30;;;;;;;19.57;44.90;97742.94;4943396;29;20206;-28
2023/04/06 10:09:35;;;;;;;5.40;3.63;;;;;;;19.47;44.77;97725.53;4938923;28;20204;-29
2023/04/06 10:12:04;;;;;;;6.63;3.70;;;;;;;19.59;44.93;97732.78;4937905;29;20208;-31
2023/04/06 10:14:37;;;;;;;5.10;3.43;;;;;;;19.59;44.87;97736.22;4940743;29;20275;-30
2023/04/06 10:17:04;;;;;;;4.57;3.27;;;;;;;19.61;44.75;97726.09;4953526;29;20251;-28
2023/04/06 10:20:00;;;;;;;6.37;3.67;;;;;;;19.61;44.74;97729.53;4947435;29;20292;-29
2023/04/06 10:22:32;;;;;;;6.13;3.40;;;;;;;19.59;44.89;97720.94;4934922;29;20196;-29
2023/04/06 10:24:59;;;;;;;5.03;2.90;;;;;;;19.62;44.83;97730.38;4938416;29;20298;-27
2023/04/06 10:27:29;;;;;;;5.27;3.67;;;;;;;19.59;45.02;97725.16;4935576;29;20204;-28
2023/04/06 10:30:04;;;;;;;5.53;3.10;;;;;;;19.66;44.89;97722.91;4951473;29;20224;-29
2023/04/06 10:32:38;;;;;;;5.63;3.83;;;;;;;19.66;44.86;97720.34;4938841;29;20267;-28
2023/04/06 10:35:12;;;;;;;4.50;3.27;;;;;;;19.67;44.80;97711.03;4948595;29;20287;-28
2023/04/06 10:38:01;;;;;;;5.03;3.20;;;;;;;19.69;44.37;97724.72;4950807;29;20208;-28
2023/04/06 10:40:28;;;;;;;6.60;3.97;;;;;;;19.69;42.15;97710.28;4951580;29;20216;-29
2023/04/06 10:42:55;;;;;;;6.27;4.17;;;;;;;19.68;42.25;97711.09;4944766;29;20208;-28
2023/04/06 10:45:25;;;;;;;6.20;4.80;;;;;;;19.68;41.74;97706.00;4950119;28;20208;-29
2023/04/06 10:47:53;;;;;;;6.77;4.10;;;;;;;19.64;42.04;97701.59;4947671;29;20292;-38
2023/04/06 10:50:19;;;;;;;4.97;4.30;;;;;;;19.69;42.31;97696.69;4948169;28;20574;-28
2023/04/06 10:52:46;;;;;;;12.40;4.87;;;;;;;19.70;42.68;97708.59;4948745;29;20627;-29
2023/04/06 10:55:14;;;;;;;16.53;4.63;;;;;;;19.70;43.07;97694.19;4954678;28;20279;-29
2023/04/06 10:57:41;;;;;;;17.23;4.90;;;;;;;19.70;43.28;97686.53;4948537;28;20200;-29
2023/04/06 11:00:08;;;;;;;17.33;4.90;;;;;;;19.69;43.49;97676.28;4952393;28;20220;-28
2023/04/06 11:02:38;;;;;;;21.30;4.93;;;;;;;19.70;43.62;97678.88;4954354;28;20279;-29
2023/04/06 11:05:05;;;;;;;15.03;4.60;;;;;;;19.71;43.74;97672.09;4953889;29;20204;-29
2023/04/06 11:07:31;;;;;;;19.10;4.97;;;;;;;19.67;43.90;97673.66;4949959;28;20253;-27
2023/04/06 11:09:58;;;;;;;15.87;4.30;;;;;;;19.69;43.92;97677.13;4945958;29;20296;-28
2023/04/06 11:12:41;;;;;;;8.83;4.20;;;;;;;19.70;44.03;97675.47;4947211;29;20215;-28
2023/04/06 11:15:08;;;;;;;9.77;4.23;;;;;;;19.69;44.20;97682.22;4952276;28;20228;-28
2023/04/06 11:17:35;;;;;;;10.07;4.33;;;;;;;19.67;44.26;97675.34;4943033;29;20291;-28
2023/04/06 11:20:03;;;;;;;10.27;4.20;;;;;;;19.67;44.37;97673.66;4945501;28;20714;-28
2023/04/06 11:22:30;;;;;;;11.33;5.00;;;;;;;19.67;44.29;97667.69;4938441;29;20263;-28
2023/04/06 11:25:07;;;;;;;9.67;4.60;;;;;;;19.66;44.38;97664.25;4948149;28;20230;-28
2023/04/06 11:27:38;;;;;;;6.90;3.83;;;;;;;19.61;44.37;97649.59;4947751;29;20671;-28
2023/04/06 11:30:06;;;;;;;13.53;4.30;;;;;;;19.64;44.45;97659.94;4919698;29;20603;-28
2023/04/06 11:32:41;;;;;;;9.07;4.33;;;;;;;19.62;44.52;97661.53;4918608;29;20201;-33
2023/04/06 11:35:19;;;;;;;7.50;3.97;;;;;;;19.63;44.64;97655.66;4942536;29;20224;-28
2023/04/06 11:37:46;;;;;;;10.03;4.10;;;;;;;19.63;44.45;97670.94;4948702;29;20200;-28
2023/04/06 11:40:13;;;;;;;5.90;3.60;;;;;;;19.62;44.57;97647.13;4950479;29;20252;-28
2023/04/06 11:42:39;;;;;;;11.00;4.13;;;;;;;19.62;44.50;97643.69;4949203;28;20200;-28
2023/04/06 11:45:07;;;;;;;10.40;4.37;;;;;;;19.58;44.66;97634.19;4947452;29;20291;-28
2023/04/06 11:47:35;;;;;;;8.03;4.17;;;;;;;19.62;44.73;97646.25;4934959;29;20214;-28
2023/04/06 11:50:09;;;;;;;10.33;4.03;;;;;;;19.61;44.72;97641.97;4935340;29;20267;-27
2023/04/06 11:52:36;;;;;;;17.93;5.27;;;;;;;19.61;43.09;97649.59;4942572;29;20259;-27
2023/04/06 11:55:13;;;;;;;8.90;5.33;;;;;;;19.60;42.71;97635.97;4950785;28;20251;-26
2023/04/06 11:57:41;;;;;;;11.23;5.60;;;;;;;19.51;42.87;97620.34;4940061;29;20211;-29
2023/04/06 12:00:09;;;;;;;13.80;5.37;;;;;;;19.59;43.04;97628.28;4935335;29;20751;-28
2023/04/06 12:02:39;;;;;;;11.07;4.60;;;;;;;19.58;42.97;97626.53;4948038;29;20670;-26
2023/04/06 12:05:06;;;;;;;13.77;5.03;;;;;;;19.58;43.27;97631.66;4953717;29;20292;-28
2023/04/06 12:07:33;;;;;;;9.87;5.00;;;;;;;19.58;43.37;97622.31;4952349;28;20204;-29
2023/04/06 12:10:01;;;;;;;9.77;4.63;;;;;;;19.57;43.62;97629.91;4945641;29;20241;-28
2023/04/06 12:12:27;;;;;;;8.23;4.30;;;;;;;19.58;43.79;97629.97;4941954;29;20208;-27
2023/04/06 12:14:55;;;;;;;7.70;4.17;;;;;;;19.55;43.86;97613.69;4942820;29;20299;-28
2023/04/06 12:17:22;;;;;;;10.57;5.03;;;;;;;19.58;43.76;97624.00;4949364;28;20197;-27
2023/04/06 12:19:48;;;;;;;8.20;4.17;;;;;;;19.55;43.83;97621.34;4948859;28;20278;-28
2023/04/06 12:22:15;;;;;;;6.63;4.13;;;;;;;19.57;43.85;97614.63;4946003;28;20201;-28
2023/04/06 12:24:42;;;;;;;10.53;4.53;;;;;;;19.58;43.96;97621.44;4952336;29;20196;-27
2023/04/06 12:27:10;;;;;;;11.97;4.70;;;;;;;19.57;43.90;97624.81;4947572;28;20204;-27
2023/04/06 12:29:37;;;;;;;8.83;4.07;;;;;;;19.56;43.90;97617.97;4953258;28;20208;-28
2023/04/06 12:32:05;;;;;;;7.97;4.20;;;;;;;19.58;43.98;97613.81;4942665;29;20599;-28
2023/04/06 12:34:32;;;;;;;9.63;4.00;;;;;;;19.58;44.05;97613.81;4948827;29;20216;-28
2023/04/06 12:36:59;;;;;;;5.30;4.00;;;;;;;19.57;44.19;97607.81;4941412;29;20208;-28
2023/04/06 12:39:27;;;;;;;6.30;4.10;;;;;;;19.56;44.03;97603.53;4948313;28;20666;-28
2023/04/06 12:41:54;;;;;;;7.90;4.33;;;;;;;19.52;44.12;97596.59;4953003;29;20219;-28
2023/04/06 12:44:20;;;;;;;5.60;3.90;;;;;;;19.55;44.18;97599.28;4948451;29;20269;-28
2023/04/06 12:46:47;;;;;;;6.13;3.97;;;;;;;19.56;44.47;97597.56;4949180;29;20204;-28
2023/04/06 12:49:16;;;;;;;8.73;3.63;;;;;;;19.56;44.47;97595.03;4949288;29;20204;-28
2023/04/06 12:51:43;;;;;;;7.53;3.57;;;;;;;19.52;44.37;97578.75;4943967;29;20225;-28
2023/04/06 12:54:10;;;;;;;5.20;3.80;;;;;;;19.57;44.50;97596.78;4948954;28;20231;-26
2023/04/06 12:56:37;;;;;;;8.23;3.77;;;;;;;19.57;44.50;97589.97;4941920;29;20208;-28
2023/04/06 12:59:05;;;;;;;8.47;4.07;;;;;;;19.58;44.55;97593.41;4949024;28;20215;-28
2023/04/06 13:01:32;;;;;;;6.27;4.10;;;;;;;19.57;44.39;97589.97;4950396;28;20222;-28
2023/04/06 13:03:59;;;;;;;8.07;3.63;;;;;;;19.57;44.59;97579.78;4947825;29;20678;-28
2023/04/06 13:06:30;;;;;;;5.60;3.50;;;;;;;19.58;44.54;97590.84;4942193;28;20215;-28
2023/04/06 13:08:56;;;;;;;6.23;3.67;;;;;;;19.58;44.35;97588.31;4939579;29;20209;-27
2023/04/06 13:11:24;;;;;;;5.97;3.30;;;;;;;19.57;44.41;97584.88;4944934;28;20667;-28
2023/04/06 13:13:54;;;;;;;5.53;3.70;;;;;;;19.58;44.67;97588.31;4929608;29;20319;-28
2023/04/06 13:16:20;;;;;;;3.97;2.93;;;;;;;19.58;44.60;97590.84;4942177;29;20291;-28
2023/04/06 13:18:47;;;;;;;5.87;3.03;;;;;;;19.58;44.58;97590.84;4945017;29;20211;-28
2023/04/06 13:21:15;;;;;;;5.30;3.53;;;;;;;19.58;44.82;97580.66;4942651;28;20260;-28
2023/04/06 13:23:42;;;;;;;4.33;2.97;;;;;;;19.58;44.84;97585.75;4945390;29;20200;-28
2023/04/06 13:26:09;;;;;;;8.00;3.23;;;;;;;19.59;44.77;97582.38;4947191;29;20255;-27
2023/04/06 13:28:39;;;;;;;9.47;3.40;;;;;;;19.59;44.59;97574.75;4943844;29;20232;-28
2023/04/06 13:31:06;;;;;;;9.17;3.27;;;;;;;19.58;44.51;97573.91;4940391;29;20224;-28
2023/04/06 13:33:33;;;;;;;5.77;3.30;;;;;;;19.54;44.76;97568.63;4952242;29;20559;-28
2023/04/06 13:36:00;;;;;;;4.23;3.10;;;;;;;19.56;44.61;97565.31;4952908;29;20711;-28
2023/04/06 13:38:27;;;;;;;4.53;3.13;;;;;;;19.58;44.66;97562.81;4954239;28;20240;-28
2023/04/06 13:40:54;;;;;;;5.10;3.13;;;;;;;19.58;44.76;97567.91;4949727;28;20316;-27
2023/04/06 13:43:20;;;;;;;5.30;3.33;;;;;;;19.57;44.79;97559.38;4949641;29;20230;-25
2023/04/06 13:45:50;;;;;;;5.30;2.80;;;;;;;19.57;44.93;97551.75;4953227;29;20200;-28
2023/04/06 13:48:17;;;;;;;3.77;2.73;;;;;;;19.58;44.93;97560.28;4939382;29;20291;-28
2023/04/06 13:50:44;;;;;;;3.80;2.90;;;;;;;19.57;44.78;97556.84;4951990;28;20259;-28
2023/04/06 13:53:11;;;;;;;5.13;3.07;;;;;;;19.56;44.79;97557.66;4944613;29;20205;-27
2023/04/06 13:55:38;;;;;;;5.27;3.10;;;;;;;19.60;44.99;97551.00;4934848;29;20227;-28
2023/04/06 13:58:04;;;;;;;4.70;3.33;;;;;;;18.86;45.29;97425.00;4949165;29;20208;-28
2023/04/06 14:00:31;;;;;;;7.80;3.07;;;;;;;19.59;44.84;97547.59;4944185;29;20227;-28
2023/04/06 14:02:57;;;;;;;6.77;3.17;;;;;;;19.59;44.94;97550.13;4956041;29;20291;-28
2023/04/06 14:05:26;;;;;;;4.27;2.60;;;;;;;19.59;45.05;97547.59;4940152;29;20739;-28
2023/04/06 14:07:52;;;;;;;10.47;3.27;;;;;;;19.60;44.93;97548.47;4947146;29;20230;-25
2023/04/06 14:10:21;;;;;;;4.23;2.93;;;;;;;19.59;45.28;97547.59;4942492;29;20284;-27
2023/04/06 14:12:48;;;;;;;5.23;2.70;;;;;;;19.54;45.12;97538.03;4946226;28;20207;-28
2023/04/06 14:15:15;;;;;;;6.50;3.17;;;;;;;19.60;45.10;97543.34;4950116;29;20271;-28
2023/04/06 14:17:41;;;;;;;3.00;2.70;;;;;;;19.59;45.35;97537.38;4953947;29;20239;-27
2023/04/06 14:20:13;;;;;;;10.13;3.03;;;;;;;19.57;45.20;97533.91;4947925;28;20299;-27
2023/04/06 14:22:42;;;;;;;8.20;2.63;;;;;;;19.58;45.24;97535.66;4955690;29;20211;-27
2023/04/06 14:25:08;;;;;;;2.93;2.50;;;;;;;19.59;45.25;97536.50;4947376;29;20345;-28
2023/04/06 14:27:35;;;;;;;7.03;2.37;;;;;;;19.59;45.58;97536.50;4953707;29;20260;-28